sensor_id;sensor_type;location;lat;lon;timestamp;P1;durP1;ratioP1;P2;durP2;ratioP2
67979;SDS011;54760;47.490;19.030;2022-12-10T00:01:27;6.97;;;5.62;;
67979;SDS011;54760;47.490;19.030;2022-12-10T00:03:54;8.50;;;5.62;;
67979;SDS011;54760;47.490;19.030;2022-12-10T00:06:21;7.60;;;6.10;;
67979;SDS011;54760;47.490;19.030;2022-12-10T00:08:49;7.45;;;5.85;;
67979;SDS011;54760;47.490;19.030;2022-12-10T00:11:15;7.60;;;6.07;;
67979;SDS011;54760;47.490;19.030;2022-12-10T00:13:42;8.95;;;6.03;;
67979;SDS011;54760;47.490;19.030;2022-12-10T00:16:09;11.20;;;6.35;;
67979;SDS011;54760;47.490;19.030;2022-12-10T00:18:36;8.05;;;6.28;;
67979;SDS011;54760;47.490;19.030;2022-12-10T00:21:02;8.00;;;6.35;;
67979;SDS011;54760;47.490;19.030;2022-12-10T00:23:34;8.85;;;6.68;;
67979;SDS011;54760;47.490;19.030;2022-12-10T00:26:07;9.70;;;6.05;;
67979;SDS011;54760;47.490;19.030;2022-12-10T00:28:34;8.68;;;5.47;;
67979;SDS011;54760;47.490;19.030;2022-12-10T00:31:07;8.07;;;6.00;;
67979;SDS011;54760;47.490;19.030;2022-12-10T00:33:37;6.62;;;5.82;;
67979;SDS011;54760;47.490;19.030;2022-12-10T00:36:04;8.85;;;5.70;;
67979;SDS011;54760;47.490;19.030;2022-12-10T00:38:32;7.80;;;5.80;;
67979;SDS011;54760;47.490;19.030;2022-12-10T00:40:58;7.65;;;5.80;;
67979;SDS011;54760;47.490;19.030;2022-12-10T00:43:23;10.18;;;5.97;;
67979;SDS011;54760;47.490;19.030;2022-12-10T00:45:48;8.65;;;5.65;;
67979;SDS011;54760;47.490;19.030;2022-12-10T00:48:14;7.90;;;6.18;;
67979;SDS011;54760;47.490;19.030;2022-12-10T00:50:39;7.15;;;5.57;;
67979;SDS011;54760;47.490;19.030;2022-12-10T00:53:04;8.00;;;6.32;;
67979;SDS011;54760;47.490;19.030;2022-12-10T00:55:30;6.53;;;5.15;;
67979;SDS011;54760;47.490;19.030;2022-12-10T00:57:55;6.87;;;5.30;;
67979;SDS011;54760;47.490;19.030;2022-12-10T01:00:21;9.30;;;6.20;;
67979;SDS011;54760;47.490;19.030;2022-12-10T01:02:46;6.40;;;5.20;;
67979;SDS011;54760;47.490;19.030;2022-12-10T01:05:11;9.23;;;6.15;;
67979;SDS011;54760;47.490;19.030;2022-12-10T01:07:37;9.05;;;5.78;;
67979;SDS011;54760;47.490;19.030;2022-12-10T01:10:02;8.23;;;5.43;;
67979;SDS011;54760;47.490;19.030;2022-12-10T01:12:28;7.97;;;6.10;;
67979;SDS011;54760;47.490;19.030;2022-12-10T01:14:53;8.27;;;5.00;;
67979;SDS011;54760;47.490;19.030;2022-12-10T01:17:19;7.25;;;5.40;;
67979;SDS011;54760;47.490;19.030;2022-12-10T01:19:46;6.25;;;5.07;;
67979;SDS011;54760;47.490;19.030;2022-12-10T01:22:12;7.68;;;5.65;;
67979;SDS011;54760;47.490;19.030;2022-12-10T01:24:37;8.48;;;5.57;;
67979;SDS011;54760;47.490;19.030;2022-12-10T01:27:03;6.75;;;5.20;;
67979;SDS011;54760;47.490;19.030;2022-12-10T01:29:28;7.70;;;5.75;;
67979;SDS011;54760;47.490;19.030;2022-12-10T01:31:54;9.48;;;5.80;;
67979;SDS011;54760;47.490;19.030;2022-12-10T01:34:21;8.90;;;5.72;;
67979;SDS011;54760;47.490;19.030;2022-12-10T01:36:49;7.50;;;6.15;;
67979;SDS011;54760;47.490;19.030;2022-12-10T01:39:16;8.32;;;5.53;;
67979;SDS011;54760;47.490;19.030;2022-12-10T01:41:47;8.60;;;5.60;;
67979;SDS011;54760;47.490;19.030;2022-12-10T01:46:41;7.55;;;5.72;;
67979;SDS011;54760;47.490;19.030;2022-12-10T01:49:09;9.13;;;6.78;;
67979;SDS011;54760;47.490;19.030;2022-12-10T01:51:38;9.13;;;7.10;;
67979;SDS011;54760;47.490;19.030;2022-12-10T01:54:07;9.82;;;6.32;;
67979;SDS011;54760;47.490;19.030;2022-12-10T01:56:36;12.07;;;6.70;;
67979;SDS011;54760;47.490;19.030;2022-12-10T01:59:10;8.52;;;6.80;;
67979;SDS011;54760;47.490;19.030;2022-12-10T02:06:55;11.05;;;6.22;;
67979;SDS011;54760;47.490;19.030;2022-12-10T02:09:34;8.77;;;6.28;;
67979;SDS011;54760;47.490;19.030;2022-12-10T02:17:29;9.88;;;6.65;;
67979;SDS011;54760;47.490;19.030;2022-12-10T02:19:58;9.38;;;6.68;;
67979;SDS011;54760;47.490;19.030;2022-12-10T02:22:26;8.63;;;6.30;;
67979;SDS011;54760;47.490;19.030;2022-12-10T02:24:55;9.60;;;6.85;;
67979;SDS011;54760;47.490;19.030;2022-12-10T02:27:26;8.80;;;5.80;;
67979;SDS011;54760;47.490;19.030;2022-12-10T02:29:56;11.12;;;6.30;;
67979;SDS011;54760;47.490;19.030;2022-12-10T02:32:27;9.23;;;6.57;;
67979;SDS011;54760;47.490;19.030;2022-12-10T02:34:58;10.40;;;7.23;;
67979;SDS011;54760;47.490;19.030;2022-12-10T02:37:32;11.45;;;7.22;;
67979;SDS011;54760;47.490;19.030;2022-12-10T02:40:04;9.50;;;6.30;;
67979;SDS011;54760;47.490;19.030;2022-12-10T02:42:34;7.05;;;5.47;;
67979;SDS011;54760;47.490;19.030;2022-12-10T02:45:03;6.87;;;5.47;;
67979;SDS011;54760;47.490;19.030;2022-12-10T02:47:30;8.10;;;5.15;;
67979;SDS011;54760;47.490;19.030;2022-12-10T02:49:56;6.93;;;4.37;;
67979;SDS011;54760;47.490;19.030;2022-12-10T02:52:23;5.22;;;4.00;;
67979;SDS011;54760;47.490;19.030;2022-12-10T02:54:50;4.40;;;2.97;;
67979;SDS011;54760;47.490;19.030;2022-12-10T03:08:05;2.60;;;2.08;;
67979;SDS011;54760;47.490;19.030;2022-12-10T03:13:22;2.37;;;1.95;;
67979;SDS011;54760;47.490;19.030;2022-12-10T03:15:53;3.47;;;1.85;;
67979;SDS011;54760;47.490;19.030;2022-12-10T03:18:21;2.28;;;1.90;;
67979;SDS011;54760;47.490;19.030;2022-12-10T03:20:49;2.28;;;1.83;;
67979;SDS011;54760;47.490;19.030;2022-12-10T03:23:17;1.95;;;1.73;;
67979;SDS011;54760;47.490;19.030;2022-12-10T03:25:43;1.92;;;1.48;;
67979;SDS011;54760;47.490;19.030;2022-12-10T03:28:15;1.95;;;1.60;;
67979;SDS011;54760;47.490;19.030;2022-12-10T03:30:44;2.17;;;1.35;;
67979;SDS011;54760;47.490;19.030;2022-12-10T03:33:12;1.90;;;1.50;;
67979;SDS011;54760;47.490;19.030;2022-12-10T03:35:38;2.17;;;1.65;;
67979;SDS011;54760;47.490;19.030;2022-12-10T03:38:05;2.80;;;1.90;;
67979;SDS011;54760;47.490;19.030;2022-12-10T03:40:31;3.33;;;2.42;;
67979;SDS011;54760;47.490;19.030;2022-12-10T03:42:56;5.43;;;3.62;;
67979;SDS011;54760;47.490;19.030;2022-12-10T03:45:22;5.80;;;4.22;;
67979;SDS011;54760;47.490;19.030;2022-12-10T03:47:47;5.35;;;4.00;;
67979;SDS011;54760;47.490;19.030;2022-12-10T03:50:14;6.85;;;4.80;;
67979;SDS011;54760;47.490;19.030;2022-12-10T03:52:40;6.57;;;4.72;;
67979;SDS011;54760;47.490;19.030;2022-12-10T03:55:06;9.70;;;5.80;;
67979;SDS011;54760;47.490;19.030;2022-12-10T03:57:32;7.78;;;5.28;;
67979;SDS011;54760;47.490;19.030;2022-12-10T03:59:58;7.90;;;5.10;;
67979;SDS011;54760;47.490;19.030;2022-12-10T04:02:23;7.15;;;5.30;;
67979;SDS011;54760;47.490;19.030;2022-12-10T04:04:48;7.87;;;5.70;;
67979;SDS011;54760;47.490;19.030;2022-12-10T04:07:14;8.68;;;5.50;;
67979;SDS011;54760;47.490;19.030;2022-12-10T04:09:39;7.87;;;5.12;;
67979;SDS011;54760;47.490;19.030;2022-12-10T04:12:05;8.57;;;5.35;;
67979;SDS011;54760;47.490;19.030;2022-12-10T04:14:30;9.05;;;6.00;;
67979;SDS011;54760;47.490;19.030;2022-12-10T04:17:14;8.40;;;5.20;;
67979;SDS011;54760;47.490;19.030;2022-12-10T04:19:39;8.07;;;5.00;;
67979;SDS011;54760;47.490;19.030;2022-12-10T04:22:05;7.45;;;5.28;;
67979;SDS011;54760;47.490;19.030;2022-12-10T04:24:49;8.18;;;5.12;;
67979;SDS011;54760;47.490;19.030;2022-12-10T04:27:37;8.55;;;5.57;;
67979;SDS011;54760;47.490;19.030;2022-12-10T04:30:04;8.13;;;5.28;;
67979;SDS011;54760;47.490;19.030;2022-12-10T04:32:32;7.97;;;5.03;;
67979;SDS011;54760;47.490;19.030;2022-12-10T04:34:57;8.27;;;4.85;;
67979;SDS011;54760;47.490;19.030;2022-12-10T04:37:23;6.45;;;4.18;;
67979;SDS011;54760;47.490;19.030;2022-12-10T04:39:49;5.65;;;3.87;;
67979;SDS011;54760;47.490;19.030;2022-12-10T04:42:15;6.53;;;4.32;;
67979;SDS011;54760;47.490;19.030;2022-12-10T04:44:41;6.20;;;3.92;;
67979;SDS011;54760;47.490;19.030;2022-12-10T04:47:07;6.10;;;3.87;;
67979;SDS011;54760;47.490;19.030;2022-12-10T04:49:34;7.00;;;4.53;;
67979;SDS011;54760;47.490;19.030;2022-12-10T04:52:00;7.55;;;3.40;;
67979;SDS011;54760;47.490;19.030;2022-12-10T04:54:26;4.62;;;3.25;;
67979;SDS011;54760;47.490;19.030;2022-12-10T04:56:51;6.12;;;3.25;;
67979;SDS011;54760;47.490;19.030;2022-12-10T04:59:17;6.18;;;3.60;;
67979;SDS011;54760;47.490;19.030;2022-12-10T05:01:42;4.90;;;3.72;;
67979;SDS011;54760;47.490;19.030;2022-12-10T05:04:09;5.72;;;3.90;;
67979;SDS011;54760;47.490;19.030;2022-12-10T05:06:36;6.80;;;4.25;;
67979;SDS011;54760;47.490;19.030;2022-12-10T05:09:02;6.05;;;4.28;;
67979;SDS011;54760;47.490;19.030;2022-12-10T05:11:29;7.05;;;4.62;;
67979;SDS011;54760;47.490;19.030;2022-12-10T05:13:56;7.70;;;4.97;;
67979;SDS011;54760;47.490;19.030;2022-12-10T05:16:23;7.68;;;5.20;;
67979;SDS011;54760;47.490;19.030;2022-12-10T05:18:50;7.90;;;5.28;;
67979;SDS011;54760;47.490;19.030;2022-12-10T05:21:17;7.68;;;5.43;;
67979;SDS011;54760;47.490;19.030;2022-12-10T05:23:45;8.50;;;5.70;;
67979;SDS011;54760;47.490;19.030;2022-12-10T05:26:14;8.60;;;5.28;;
67979;SDS011;54760;47.490;19.030;2022-12-10T05:28:45;7.65;;;5.30;;
67979;SDS011;54760;47.490;19.030;2022-12-10T05:31:17;8.85;;;5.15;;
67979;SDS011;54760;47.490;19.030;2022-12-10T05:33:50;8.70;;;5.60;;
67979;SDS011;54760;47.490;19.030;2022-12-10T05:36:18;8.50;;;5.40;;
67979;SDS011;54760;47.490;19.030;2022-12-10T05:38:45;9.82;;;6.12;;
67979;SDS011;54760;47.490;19.030;2022-12-10T05:41:12;8.93;;;5.95;;
67979;SDS011;54760;47.490;19.030;2022-12-10T05:43:42;9.25;;;6.15;;
67979;SDS011;54760;47.490;19.030;2022-12-10T05:46:10;10.15;;;6.32;;
67979;SDS011;54760;47.490;19.030;2022-12-10T05:48:37;12.57;;;7.18;;
67979;SDS011;54760;47.490;19.030;2022-12-10T05:51:07;9.13;;;6.32;;
67979;SDS011;54760;47.490;19.030;2022-12-10T05:53:35;10.75;;;7.10;;
67979;SDS011;54760;47.490;19.030;2022-12-10T05:56:02;10.07;;;6.93;;
67979;SDS011;54760;47.490;19.030;2022-12-10T05:58:32;9.75;;;6.90;;
67979;SDS011;54760;47.490;19.030;2022-12-10T06:00:58;11.77;;;7.60;;
67979;SDS011;54760;47.490;19.030;2022-12-10T06:03:24;11.50;;;8.05;;
67979;SDS011;54760;47.490;19.030;2022-12-10T06:05:51;11.43;;;7.78;;
67979;SDS011;54760;47.490;19.030;2022-12-10T06:08:16;11.90;;;7.57;;
67979;SDS011;54760;47.490;19.030;2022-12-10T06:10:42;11.57;;;8.32;;
67979;SDS011;54760;47.490;19.030;2022-12-10T06:13:07;11.10;;;8.30;;
67979;SDS011;54760;47.490;19.030;2022-12-10T06:15:32;11.38;;;8.13;;
67979;SDS011;54760;47.490;19.030;2022-12-10T06:17:58;13.13;;;8.93;;
67979;SDS011;54760;47.490;19.030;2022-12-10T06:20:24;11.12;;;8.15;;
67979;SDS011;54760;47.490;19.030;2022-12-10T06:22:50;11.77;;;8.85;;
67979;SDS011;54760;47.490;19.030;2022-12-10T06:25:16;11.95;;;8.35;;
67979;SDS011;54760;47.490;19.030;2022-12-10T06:27:42;11.18;;;8.00;;
67979;SDS011;54760;47.490;19.030;2022-12-10T06:30:07;10.07;;;7.85;;
67979;SDS011;54760;47.490;19.030;2022-12-10T06:32:33;11.75;;;8.57;;
67979;SDS011;54760;47.490;19.030;2022-12-10T06:34:59;10.40;;;8.15;;
67979;SDS011;54760;47.490;19.030;2022-12-10T06:37:24;9.50;;;7.40;;
67979;SDS011;54760;47.490;19.030;2022-12-10T06:39:50;10.82;;;7.72;;
67979;SDS011;54760;47.490;19.030;2022-12-10T06:42:17;12.35;;;7.90;;
67979;SDS011;54760;47.490;19.030;2022-12-10T06:44:43;10.80;;;7.70;;
67979;SDS011;54760;47.490;19.030;2022-12-10T06:47:08;10.13;;;7.37;;
67979;SDS011;54760;47.490;19.030;2022-12-10T06:49:34;10.35;;;7.90;;
67979;SDS011;54760;47.490;19.030;2022-12-10T06:51:59;9.80;;;7.72;;
67979;SDS011;54760;47.490;19.030;2022-12-10T06:54:24;10.25;;;7.70;;
67979;SDS011;54760;47.490;19.030;2022-12-10T06:56:50;9.82;;;7.37;;
67979;SDS011;54760;47.490;19.030;2022-12-10T06:59:15;8.30;;;6.62;;
67979;SDS011;54760;47.490;19.030;2022-12-10T07:01:41;10.10;;;7.20;;
67979;SDS011;54760;47.490;19.030;2022-12-10T07:04:06;8.25;;;6.62;;
67979;SDS011;54760;47.490;19.030;2022-12-10T07:06:32;9.65;;;7.15;;
67979;SDS011;54760;47.490;19.030;2022-12-10T07:08:58;9.65;;;7.45;;
67979;SDS011;54760;47.490;19.030;2022-12-10T07:11:24;10.98;;;7.95;;
67979;SDS011;54760;47.490;19.030;2022-12-10T07:13:50;10.20;;;7.00;;
67979;SDS011;54760;47.490;19.030;2022-12-10T07:16:19;9.90;;;7.15;;
67979;SDS011;54760;47.490;19.030;2022-12-10T07:18:47;11.02;;;8.13;;
67979;SDS011;54760;47.490;19.030;2022-12-10T07:21:14;10.35;;;8.00;;
67979;SDS011;54760;47.490;19.030;2022-12-10T07:23:44;10.85;;;8.38;;
67979;SDS011;54760;47.490;19.030;2022-12-10T07:26:10;10.30;;;8.63;;
67979;SDS011;54760;47.490;19.030;2022-12-10T07:28:35;11.48;;;9.23;;
67979;SDS011;54760;47.490;19.030;2022-12-10T07:31:04;10.50;;;8.65;;
67979;SDS011;54760;47.490;19.030;2022-12-10T07:33:31;11.55;;;8.55;;
67979;SDS011;54760;47.490;19.030;2022-12-10T07:35:57;12.05;;;9.50;;
67979;SDS011;54760;47.490;19.030;2022-12-10T07:38:23;11.65;;;9.13;;
67979;SDS011;54760;47.490;19.030;2022-12-10T07:40:49;12.13;;;9.10;;
67979;SDS011;54760;47.490;19.030;2022-12-10T07:43:15;11.38;;;9.02;;
67979;SDS011;54760;47.490;19.030;2022-12-10T07:45:40;11.30;;;8.65;;
67979;SDS011;54760;47.490;19.030;2022-12-10T07:48:05;13.90;;;9.27;;
67979;SDS011;54760;47.490;19.030;2022-12-10T07:50:31;13.80;;;8.82;;
67979;SDS011;54760;47.490;19.030;2022-12-10T07:52:56;12.82;;;9.35;;
67979;SDS011;54760;47.490;19.030;2022-12-10T07:55:22;14.75;;;9.98;;
67979;SDS011;54760;47.490;19.030;2022-12-10T07:57:47;14.18;;;9.68;;
67979;SDS011;54760;47.490;19.030;2022-12-10T08:00:12;11.10;;;8.43;;
67979;SDS011;54760;47.490;19.030;2022-12-10T08:02:38;11.63;;;8.65;;
67979;SDS011;54760;47.490;19.030;2022-12-10T08:05:04;11.60;;;8.63;;
67979;SDS011;54760;47.490;19.030;2022-12-10T08:07:29;13.43;;;8.85;;
67979;SDS011;54760;47.490;19.030;2022-12-10T08:09:55;12.45;;;8.95;;
67979;SDS011;54760;47.490;19.030;2022-12-10T08:12:20;13.85;;;9.15;;
67979;SDS011;54760;47.490;19.030;2022-12-10T08:14:45;13.27;;;9.77;;
67979;SDS011;54760;47.490;19.030;2022-12-10T08:17:11;13.98;;;9.77;;
67979;SDS011;54760;47.490;19.030;2022-12-10T08:19:36;13.62;;;9.73;;
67979;SDS011;54760;47.490;19.030;2022-12-10T08:22:01;12.95;;;9.95;;
67979;SDS011;54760;47.490;19.030;2022-12-10T08:24:27;14.85;;;10.07;;
67979;SDS011;54760;47.490;19.030;2022-12-10T08:26:52;13.30;;;8.90;;
67979;SDS011;54760;47.490;19.030;2022-12-10T08:29:18;13.35;;;9.45;;
67979;SDS011;54760;47.490;19.030;2022-12-10T08:31:43;13.10;;;8.55;;
67979;SDS011;54760;47.490;19.030;2022-12-10T08:34:15;14.75;;;9.15;;
67979;SDS011;54760;47.490;19.030;2022-12-10T08:36:42;15.15;;;9.80;;
67979;SDS011;54760;47.490;19.030;2022-12-10T08:39:09;13.23;;;9.23;;
67979;SDS011;54760;47.490;19.030;2022-12-10T08:41:41;12.52;;;9.57;;
67979;SDS011;54760;47.490;19.030;2022-12-10T08:44:07;14.23;;;9.98;;
67979;SDS011;54760;47.490;19.030;2022-12-10T08:46:33;13.50;;;9.70;;
67979;SDS011;54760;47.490;19.030;2022-12-10T08:48:58;14.68;;;9.90;;
67979;SDS011;54760;47.490;19.030;2022-12-10T08:51:24;13.68;;;9.52;;
67979;SDS011;54760;47.490;19.030;2022-12-10T08:53:50;14.65;;;10.20;;
67979;SDS011;54760;47.490;19.030;2022-12-10T08:56:15;15.35;;;10.07;;
67979;SDS011;54760;47.490;19.030;2022-12-10T08:58:40;16.35;;;9.88;;
67979;SDS011;54760;47.490;19.030;2022-12-10T09:01:07;14.07;;;10.02;;
67979;SDS011;54760;47.490;19.030;2022-12-10T09:03:34;13.02;;;9.60;;
67979;SDS011;54760;47.490;19.030;2022-12-10T09:06:04;12.32;;;8.32;;
67979;SDS011;54760;47.490;19.030;2022-12-10T09:08:32;13.23;;;9.13;;
67979;SDS011;54760;47.490;19.030;2022-12-10T09:10:58;13.40;;;8.88;;
67979;SDS011;54760;47.490;19.030;2022-12-10T09:13:23;14.68;;;10.00;;
67979;SDS011;54760;47.490;19.030;2022-12-10T09:15:49;13.43;;;9.27;;
67979;SDS011;54760;47.490;19.030;2022-12-10T09:18:16;13.95;;;9.93;;
67979;SDS011;54760;47.490;19.030;2022-12-10T09:20:42;13.52;;;9.55;;
67979;SDS011;54760;47.490;19.030;2022-12-10T09:23:07;13.75;;;9.73;;
67979;SDS011;54760;47.490;19.030;2022-12-10T09:25:32;12.35;;;9.10;;
67979;SDS011;54760;47.490;19.030;2022-12-10T09:27:58;16.23;;;10.50;;
67979;SDS011;54760;47.490;19.030;2022-12-10T09:30:23;15.55;;;10.55;;
67979;SDS011;54760;47.490;19.030;2022-12-10T09:32:48;14.27;;;10.20;;
67979;SDS011;54760;47.490;19.030;2022-12-10T09:35:14;17.40;;;10.48;;
67979;SDS011;54760;47.490;19.030;2022-12-10T09:37:39;15.50;;;10.63;;
67979;SDS011;54760;47.490;19.030;2022-12-10T09:40:05;15.27;;;10.23;;
67979;SDS011;54760;47.490;19.030;2022-12-10T09:42:51;17.12;;;10.15;;
67979;SDS011;54760;47.490;19.030;2022-12-10T09:47:52;16.30;;;8.73;;
67979;SDS011;54760;47.490;19.030;2022-12-10T09:50:25;15.30;;;9.10;;
67979;SDS011;54760;47.490;19.030;2022-12-10T09:55:36;10.95;;;7.32;;
67979;SDS011;54760;47.490;19.030;2022-12-10T09:58:05;10.45;;;6.93;;
67979;SDS011;54760;47.490;19.030;2022-12-10T10:00:37;12.23;;;7.90;;
67979;SDS011;54760;47.490;19.030;2022-12-10T10:03:04;11.57;;;7.43;;
67979;SDS011;54760;47.490;19.030;2022-12-10T10:05:35;12.60;;;7.70;;
67979;SDS011;54760;47.490;19.030;2022-12-10T10:08:06;10.25;;;7.07;;
67979;SDS011;54760;47.490;19.030;2022-12-10T10:10:39;10.35;;;7.18;;
67979;SDS011;54760;47.490;19.030;2022-12-10T10:15:37;12.13;;;8.30;;
67979;SDS011;54760;47.490;19.030;2022-12-10T10:18:14;13.88;;;8.57;;
67979;SDS011;54760;47.490;19.030;2022-12-10T10:20:47;11.70;;;8.23;;
67979;SDS011;54760;47.490;19.030;2022-12-10T10:23:15;12.93;;;8.70;;
67979;SDS011;54760;47.490;19.030;2022-12-10T10:25:41;15.07;;;9.23;;
67979;SDS011;54760;47.490;19.030;2022-12-10T10:28:09;13.52;;;9.25;;
67979;SDS011;54760;47.490;19.030;2022-12-10T10:30:37;14.52;;;9.88;;
67979;SDS011;54760;47.490;19.030;2022-12-10T10:33:08;15.32;;;10.10;;
67979;SDS011;54760;47.490;19.030;2022-12-10T10:35:41;14.75;;;10.32;;
67979;SDS011;54760;47.490;19.030;2022-12-10T10:38:16;15.50;;;9.80;;
67979;SDS011;54760;47.490;19.030;2022-12-10T10:40:46;15.38;;;10.32;;
67979;SDS011;54760;47.490;19.030;2022-12-10T10:43:25;20.35;;;11.20;;
67979;SDS011;54760;47.490;19.030;2022-12-10T10:45:54;18.40;;;11.40;;
67979;SDS011;54760;47.490;19.030;2022-12-10T10:48:25;17.00;;;10.75;;
67979;SDS011;54760;47.490;19.030;2022-12-10T10:50:56;15.25;;;9.95;;
67979;SDS011;54760;47.490;19.030;2022-12-10T10:53:32;13.98;;;8.68;;
67979;SDS011;54760;47.490;19.030;2022-12-10T10:59:29;13.88;;;9.32;;
67979;SDS011;54760;47.490;19.030;2022-12-10T11:02:01;15.40;;;9.52;;
67979;SDS011;54760;47.490;19.030;2022-12-10T11:04:37;15.05;;;9.20;;
67979;SDS011;54760;47.490;19.030;2022-12-10T11:10:00;19.30;;;11.25;;
67979;SDS011;54760;47.490;19.030;2022-12-10T11:12:38;15.20;;;10.15;;
67979;SDS011;54760;47.490;19.030;2022-12-10T11:17:49;18.58;;;11.80;;
67979;SDS011;54760;47.490;19.030;2022-12-10T11:22:50;21.83;;;13.60;;
67979;SDS011;54760;47.490;19.030;2022-12-10T11:25:23;21.75;;;14.02;;
67979;SDS011;54760;47.490;19.030;2022-12-10T11:28:24;23.60;;;14.77;;
67979;SDS011;54760;47.490;19.030;2022-12-10T11:34:21;21.00;;;13.85;;
67979;SDS011;54760;47.490;19.030;2022-12-10T11:37:02;22.17;;;13.85;;
67979;SDS011;54760;47.490;19.030;2022-12-10T11:39:51;22.50;;;14.90;;
67979;SDS011;54760;47.490;19.030;2022-12-10T11:42:32;24.50;;;15.07;;
67979;SDS011;54760;47.490;19.030;2022-12-10T11:50:47;24.05;;;14.52;;
67979;SDS011;54760;47.490;19.030;2022-12-10T11:55:58;23.33;;;13.88;;
67979;SDS011;54760;47.490;19.030;2022-12-10T12:07:12;20.05;;;12.60;;
67979;SDS011;54760;47.490;19.030;2022-12-10T12:15:25;19.70;;;12.52;;
67979;SDS011;54760;47.490;19.030;2022-12-10T12:18:03;19.90;;;13.25;;
67979;SDS011;54760;47.490;19.030;2022-12-10T12:20:34;20.75;;;12.52;;
67979;SDS011;54760;47.490;19.030;2022-12-10T12:23:13;21.30;;;13.35;;
67979;SDS011;54760;47.490;19.030;2022-12-10T12:25:46;22.65;;;14.27;;
67979;SDS011;54760;47.490;19.030;2022-12-10T12:30:58;25.02;;;15.65;;
67979;SDS011;54760;47.490;19.030;2022-12-10T12:33:29;26.75;;;16.10;;
67979;SDS011;54760;47.490;19.030;2022-12-10T12:36:02;26.70;;;16.23;;
67979;SDS011;54760;47.490;19.030;2022-12-10T12:38:40;28.25;;;17.27;;
67979;SDS011;54760;47.490;19.030;2022-12-10T12:44:21;26.37;;;16.45;;
67979;SDS011;54760;47.490;19.030;2022-12-10T12:49:55;27.17;;;16.05;;
67979;SDS011;54760;47.490;19.030;2022-12-10T12:55:16;37.72;;;20.52;;
67979;SDS011;54760;47.490;19.030;2022-12-10T12:57:47;30.37;;;18.92;;
67979;SDS011;54760;47.490;19.030;2022-12-10T13:00:18;27.08;;;17.10;;
67979;SDS011;54760;47.490;19.030;2022-12-10T13:05:34;26.87;;;15.50;;
67979;SDS011;54760;47.490;19.030;2022-12-10T13:13:38;25.12;;;15.90;;
67979;SDS011;54760;47.490;19.030;2022-12-10T13:19:27;26.23;;;16.17;;
67979;SDS011;54760;47.490;19.030;2022-12-10T13:32:23;25.33;;;15.13;;
67979;SDS011;54760;47.490;19.030;2022-12-10T13:35:43;24.08;;;14.87;;
67979;SDS011;54760;47.490;19.030;2022-12-10T13:37:56;24.00;;;14.70;;
67979;SDS011;54760;47.490;19.030;2022-12-10T13:42:58;21.70;;;13.75;;
67979;SDS011;54760;47.490;19.030;2022-12-10T13:49:02;21.35;;;13.60;;
67979;SDS011;54760;47.490;19.030;2022-12-10T13:56:52;23.10;;;14.15;;
67979;SDS011;54760;47.490;19.030;2022-12-10T14:00:01;23.48;;;14.35;;
67979;SDS011;54760;47.490;19.030;2022-12-10T14:08:32;22.37;;;13.80;;
67979;SDS011;54760;47.490;19.030;2022-12-10T14:11:01;23.87;;;13.65;;
67979;SDS011;54760;47.490;19.030;2022-12-10T14:13:36;22.42;;;14.15;;
67979;SDS011;54760;47.490;19.030;2022-12-10T14:16:05;22.27;;;13.48;;
67979;SDS011;54760;47.490;19.030;2022-12-10T14:18:36;24.10;;;13.90;;
67979;SDS011;54760;47.490;19.030;2022-12-10T14:21:04;24.83;;;14.00;;
67979;SDS011;54760;47.490;19.030;2022-12-10T14:23:32;22.27;;;13.52;;
67979;SDS011;54760;47.490;19.030;2022-12-10T14:26:12;22.00;;;13.80;;
67979;SDS011;54760;47.490;19.030;2022-12-10T14:28:43;19.92;;;13.65;;
67979;SDS011;54760;47.490;19.030;2022-12-10T14:31:16;20.52;;;13.50;;
67979;SDS011;54760;47.490;19.030;2022-12-10T14:33:45;19.62;;;13.62;;
67979;SDS011;54760;47.490;19.030;2022-12-10T14:36:17;20.25;;;13.90;;
67979;SDS011;54760;47.490;19.030;2022-12-10T14:38:49;22.00;;;13.85;;
67979;SDS011;54760;47.490;19.030;2022-12-10T14:41:17;21.52;;;13.48;;
67979;SDS011;54760;47.490;19.030;2022-12-10T14:43:45;18.50;;;12.32;;
67979;SDS011;54760;47.490;19.030;2022-12-10T14:46:13;21.12;;;13.55;;
67979;SDS011;54760;47.490;19.030;2022-12-10T14:48:40;23.08;;;13.10;;
67979;SDS011;54760;47.490;19.030;2022-12-10T14:51:14;19.67;;;13.05;;
67979;SDS011;54760;47.490;19.030;2022-12-10T14:53:44;20.30;;;12.48;;
67979;SDS011;54760;47.490;19.030;2022-12-10T14:56:24;18.73;;;12.50;;
67979;SDS011;54760;47.490;19.030;2022-12-10T14:58:59;19.27;;;12.18;;
67979;SDS011;54760;47.490;19.030;2022-12-10T15:01:34;18.65;;;12.32;;
67979;SDS011;54760;47.490;19.030;2022-12-10T15:04:03;19.92;;;12.75;;
67979;SDS011;54760;47.490;19.030;2022-12-10T15:06:35;17.98;;;12.00;;
67979;SDS011;54760;47.490;19.030;2022-12-10T15:09:01;21.55;;;12.82;;
67979;SDS011;54760;47.490;19.030;2022-12-10T15:11:28;19.05;;;12.75;;
67979;SDS011;54760;47.490;19.030;2022-12-10T15:13:57;20.45;;;12.27;;
67979;SDS011;54760;47.490;19.030;2022-12-10T15:16:38;21.20;;;12.85;;
67979;SDS011;54760;47.490;19.030;2022-12-10T15:21:47;18.62;;;11.57;;
67979;SDS011;54760;47.490;19.030;2022-12-10T15:24:58;18.42;;;12.35;;
67979;SDS011;54760;47.490;19.030;2022-12-10T15:27:14;16.45;;;11.32;;
67979;SDS011;54760;47.490;19.030;2022-12-10T15:29:45;18.10;;;11.70;;
67979;SDS011;54760;47.490;19.030;2022-12-10T15:32:11;19.80;;;11.15;;
67979;SDS011;54760;47.490;19.030;2022-12-10T15:34:41;16.92;;;10.95;;
67979;SDS011;54760;47.490;19.030;2022-12-10T15:37:17;17.12;;;10.95;;
67979;SDS011;54760;47.490;19.030;2022-12-10T15:39:49;19.50;;;11.57;;
67979;SDS011;54760;47.490;19.030;2022-12-10T15:45:26;17.55;;;11.25;;
67979;SDS011;54760;47.490;19.030;2022-12-10T15:48:03;19.75;;;11.23;;
67979;SDS011;54760;47.490;19.030;2022-12-10T15:50:32;17.48;;;10.80;;
67979;SDS011;54760;47.490;19.030;2022-12-10T15:52:58;17.23;;;11.65;;
67979;SDS011;54760;47.490;19.030;2022-12-10T15:55:23;19.70;;;11.80;;
67979;SDS011;54760;47.490;19.030;2022-12-10T15:57:49;19.48;;;12.50;;
67979;SDS011;54760;47.490;19.030;2022-12-10T16:00:16;17.40;;;11.75;;
67979;SDS011;54760;47.490;19.030;2022-12-10T16:07:55;20.80;;;11.40;;
67979;SDS011;54760;47.490;19.030;2022-12-10T16:10:23;17.62;;;11.12;;
67979;SDS011;54760;47.490;19.030;2022-12-10T16:15:24;19.33;;;11.45;;
67979;SDS011;54760;47.490;19.030;2022-12-10T16:17:52;19.85;;;11.43;;
67979;SDS011;54760;47.490;19.030;2022-12-10T16:20:19;14.75;;;10.25;;
67979;SDS011;54760;47.490;19.030;2022-12-10T16:22:47;17.35;;;10.55;;
67979;SDS011;54760;47.490;19.030;2022-12-10T16:25:13;19.92;;;11.90;;
67979;SDS011;54760;47.490;19.030;2022-12-10T16:27:39;17.42;;;11.40;;
67979;SDS011;54760;47.490;19.030;2022-12-10T16:32:42;16.45;;;10.43;;
67979;SDS011;54760;47.490;19.030;2022-12-10T16:35:08;19.08;;;11.63;;
67979;SDS011;54760;47.490;19.030;2022-12-10T16:37:33;18.20;;;10.77;;
67979;SDS011;54760;47.490;19.030;2022-12-10T16:39:58;16.10;;;11.07;;
67979;SDS011;54760;47.490;19.030;2022-12-10T16:42:24;17.27;;;10.75;;
67979;SDS011;54760;47.490;19.030;2022-12-10T16:44:50;18.80;;;11.77;;
67979;SDS011;54760;47.490;19.030;2022-12-10T16:47:16;19.25;;;11.63;;
67979;SDS011;54760;47.490;19.030;2022-12-10T16:49:41;17.25;;;11.52;;